createdAt,value
2023-08-29T00:00:16.577Z,19.51
2023-08-29T00:03:08.648Z,19.48
2023-08-29T00:05:36.738Z,19.46
2023-08-29T00:08:05.231Z,19.45
2023-08-29T00:10:33.509Z,19.43
2023-08-29T00:13:01.528Z,19.44
2023-08-29T00:15:29.483Z,19.45
2023-08-29T00:17:57.454Z,19.45
2023-08-29T00:20:25.518Z,19.46
2023-08-29T00:22:53.483Z,19.47
2023-08-29T00:25:21.471Z,19.49
2023-08-29T00:27:49.297Z,19.51
2023-08-29T00:30:17.415Z,19.53
2023-08-29T00:32:46.274Z,19.55
2023-08-29T00:35:14.430Z,19.56
2023-08-29T00:37:42.448Z,19.57
2023-08-29T00:40:11.742Z,19.59
2023-08-29T00:42:39.910Z,19.59
2023-08-29T00:45:08.216Z,19.60
2023-08-29T00:47:36.598Z,19.61
2023-08-29T00:50:06.943Z,19.61
2023-08-29T00:52:35.291Z,19.60
2023-08-29T00:55:03.853Z,19.59
2023-08-29T00:57:32.139Z,19.58
2023-08-29T01:00:00.316Z,19.56
2023-08-29T01:02:28.266Z,19.56
2023-08-29T01:04:56.245Z,19.55
2023-08-29T01:07:24.291Z,19.53
2023-08-29T01:09:52.916Z,19.52
2023-08-29T01:12:20.888Z,19.51
2023-08-29T01:14:59.745Z,19.51
2023-08-29T01:17:35.929Z,19.50
2023-08-29T01:20:07.606Z,19.49
2023-08-29T01:23:11.704Z,19.48
2023-08-29T01:26:14.170Z,19.49
2023-08-29T01:28:44.980Z,19.49
2023-08-29T01:31:13.869Z,19.51
2023-08-29T01:33:42.480Z,19.51
2023-08-29T01:36:10.525Z,19.51
2023-08-29T01:38:38.426Z,19.51
2023-08-29T01:41:06.916Z,19.51
2023-08-29T01:43:35.853Z,19.51
2023-08-29T01:46:03.791Z,19.50
2023-08-29T01:48:32.890Z,19.50
2023-08-29T01:51:00.920Z,19.50
2023-08-29T01:53:29.426Z,19.50
2023-08-29T01:55:59.717Z,19.49
2023-08-29T01:58:29.010Z,19.49
2023-08-29T02:01:04.101Z,19.49
2023-08-29T02:03:38.169Z,19.49
2023-08-29T02:06:06.120Z,19.50
2023-08-29T02:08:33.980Z,19.51
2023-08-29T02:11:01.938Z,19.50
2023-08-29T02:13:29.871Z,19.49
2023-08-29T02:15:57.837Z,19.49
2023-08-29T02:18:26.555Z,19.49
2023-08-29T02:20:54.596Z,19.49
2023-08-29T02:23:22.656Z,19.49
2023-08-29T02:26:05.310Z,19.48
2023-08-29T02:28:38.461Z,19.48
2023-08-29T02:31:10.004Z,19.48
2023-08-29T02:33:39.555Z,19.49
2023-08-29T02:36:08.178Z,19.49
2023-08-29T02:38:36.589Z,19.50
2023-08-29T02:41:11.044Z,19.51
2023-08-29T02:43:40.297Z,19.52
2023-08-29T02:46:08.518Z,19.52
2023-08-29T02:48:36.634Z,19.52
2023-08-29T02:51:04.663Z,19.52
2023-08-29T02:53:32.670Z,19.52
2023-08-29T02:56:00.760Z,19.53
2023-08-29T02:58:28.877Z,19.53
2023-08-29T03:01:01.261Z,19.52
2023-08-29T03:03:29.378Z,19.53
2023-08-29T03:05:58.344Z,19.54
2023-08-29T03:08:27.697Z,19.55
2023-08-29T03:10:56.170Z,19.55
2023-08-29T03:13:24.360Z,19.54
2023-08-29T03:15:52.276Z,19.53
2023-08-29T03:18:20.289Z,19.53
2023-08-29T03:20:48.396Z,19.53
2023-08-29T03:23:16.399Z,19.54
2023-08-29T03:25:44.424Z,19.53
2023-08-29T03:28:12.364Z,19.53
2023-08-29T03:30:40.381Z,19.53
2023-08-29T03:33:08.402Z,19.54
2023-08-29T03:35:38.237Z,19.54
2023-08-29T03:38:07.368Z,19.54
2023-08-29T03:40:35.785Z,19.51
2023-08-29T03:43:03.904Z,19.48
2023-08-29T03:45:32.909Z,19.45
2023-08-29T03:48:02.438Z,19.42
2023-08-29T03:50:31.724Z,19.38
2023-08-29T03:52:59.628Z,19.32
2023-08-29T03:55:27.495Z,19.28
2023-08-29T03:57:55.782Z,19.25
2023-08-29T04:00:23.881Z,19.22
2023-08-29T04:02:52.022Z,19.20
2023-08-29T04:05:20.151Z,19.16
2023-08-29T04:07:48.896Z,19.12
2023-08-29T04:10:17.005Z,19.10
2023-08-29T04:12:46.164Z,19.06
2023-08-29T04:15:14.288Z,19.02
2023-08-29T04:17:42.321Z,18.99
2023-08-29T04:20:11.651Z,18.95
2023-08-29T04:22:40.588Z,18.92
2023-08-29T04:25:10.062Z,18.89
2023-08-29T04:27:39.090Z,18.87
2023-08-29T04:30:07.660Z,18.83
2023-08-29T04:32:38.327Z,18.82
2023-08-29T04:35:08.067Z,18.81
2023-08-29T04:37:36.385Z,18.80
2023-08-29T04:40:08.020Z,18.81
2023-08-29T04:42:36.084Z,18.81
2023-08-29T04:45:07.732Z,18.82
2023-08-29T04:47:36.583Z,18.84
2023-08-29T04:50:05.074Z,18.84
2023-08-29T04:52:34.233Z,18.85
2023-08-29T04:55:02.383Z,18.85
2023-08-29T04:57:34.422Z,18.87
2023-08-29T05:00:04.825Z,18.87
2023-08-29T05:02:33.199Z,18.88
2023-08-29T05:05:01.252Z,18.87
2023-08-29T05:07:30.840Z,18.87
2023-08-29T05:10:01.154Z,18.87
2023-08-29T05:12:32.394Z,18.87
2023-08-29T05:15:00.406Z,18.87
2023-08-29T05:17:28.463Z,18.86
2023-08-29T05:19:56.454Z,18.87
2023-08-29T05:22:24.384Z,18.87
2023-08-29T05:24:52.352Z,18.87
2023-08-29T05:27:20.259Z,18.87
2023-08-29T05:29:48.220Z,18.88
2023-08-29T05:32:16.180Z,18.89
2023-08-29T05:34:44.425Z,18.90
2023-08-29T05:37:12.366Z,18.90
2023-08-29T05:39:40.391Z,18.91
2023-08-29T05:42:08.429Z,18.93
2023-08-29T05:44:36.514Z,18.93
2023-08-29T05:47:04.860Z,18.92
2023-08-29T05:49:32.972Z,18.92
2023-08-29T05:52:00.939Z,18.93
2023-08-29T05:54:29.752Z,18.94
2023-08-29T05:56:57.713Z,18.95
2023-08-29T05:59:25.597Z,18.95
2023-08-29T06:01:53.716Z,18.97
2023-08-29T06:04:21.729Z,18.99
2023-08-29T06:06:50.468Z,19.00
2023-08-29T06:09:19.739Z,19.02
2023-08-29T06:11:47.700Z,19.05
2023-08-29T06:14:15.641Z,19.08
2023-08-29T06:16:43.527Z,19.09
2023-08-29T06:19:11.658Z,19.11
2023-08-29T06:21:40.209Z,19.14
2023-08-29T06:24:08.212Z,19.16
2023-08-29T06:26:36.512Z,19.20
2023-08-29T06:29:05.279Z,19.24
2023-08-29T06:31:33.807Z,19.29
2023-08-29T06:34:01.843Z,19.34
2023-08-29T06:36:29.946Z,19.39
2023-08-29T06:38:57.912Z,19.46
2023-08-29T06:41:25.856Z,19.53
2023-08-29T06:43:53.799Z,19.60
2023-08-29T06:46:21.837Z,19.67
2023-08-29T06:48:49.706Z,19.75
2023-08-29T06:51:17.848Z,19.84
2023-08-29T06:53:45.840Z,19.92
2023-08-29T06:56:13.815Z,20.00
2023-08-29T06:58:41.920Z,20.09
2023-08-29T07:01:09.991Z,20.18
2023-08-29T07:03:38.299Z,20.28
2023-08-29T07:06:07.870Z,20.37
2023-08-29T07:08:35.880Z,20.47
2023-08-29T07:11:03.820Z,20.55
2023-08-29T07:13:31.711Z,20.62
2023-08-29T07:15:59.969Z,20.69
2023-08-29T07:18:27.968Z,20.76
2023-08-29T07:20:56.157Z,20.82
2023-08-29T07:23:24.567Z,20.89
2023-08-29T07:25:52.536Z,20.94
2023-08-29T07:28:20.633Z,20.99
2023-08-29T07:30:51.370Z,21.03
2023-08-29T07:33:20.862Z,21.09
2023-08-29T07:35:51.984Z,21.14
2023-08-29T07:38:20.842Z,21.18
2023-08-29T07:40:48.835Z,21.22
2023-08-29T07:43:17.181Z,21.26
2023-08-29T07:45:46.395Z,21.30
2023-08-29T07:48:14.393Z,21.34
2023-08-29T07:50:42.500Z,21.37
2023-08-29T07:53:10.488Z,21.41
2023-08-29T07:55:38.708Z,21.45
2023-08-29T07:58:06.990Z,21.51
2023-08-29T08:00:35.536Z,21.56
2023-08-29T08:03:06.776Z,21.62
2023-08-29T08:05:35.123Z,21.69
2023-08-29T08:08:03.317Z,21.74
2023-08-29T08:10:32.867Z,21.78
2023-08-29T08:13:05.005Z,21.83
2023-08-29T08:15:32.925Z,21.87
2023-08-29T08:18:00.832Z,21.89
2023-08-29T08:20:29.706Z,21.91
2023-08-29T08:22:57.798Z,21.92
2023-08-29T08:25:25.907Z,21.92
2023-08-29T08:27:53.763Z,21.93
2023-08-29T08:30:23.367Z,21.94
2023-08-29T08:32:51.537Z,21.96
2023-08-29T08:35:20.125Z,21.97
2023-08-29T08:37:47.991Z,21.99
2023-08-29T08:40:16.298Z,22.01
2023-08-29T08:42:45.754Z,22.02
2023-08-29T08:45:14.839Z,22.05
2023-08-29T08:47:44.166Z,22.10
2023-08-29T08:50:12.955Z,22.15
2023-08-29T08:52:43.195Z,22.19
2023-08-29T08:55:11.555Z,22.23
2023-08-29T08:57:40.032Z,22.25
2023-08-29T09:00:09.075Z,22.27
2023-08-29T09:02:38.977Z,22.32
2023-08-29T09:05:10.246Z,22.37
2023-08-29T09:07:42.720Z,22.42
2023-08-29T09:10:16.877Z,22.47
2023-08-29T09:12:53.193Z,22.52
2023-08-29T09:15:21.340Z,22.56
2023-08-29T09:17:51.094Z,22.59
2023-08-29T09:20:19.693Z,22.61
2023-08-29T09:22:48.495Z,22.63
2023-08-29T09:25:16.495Z,22.67
2023-08-29T09:27:48.405Z,22.72
2023-08-29T09:30:18.516Z,22.76
2023-08-29T09:32:48.780Z,22.81
2023-08-29T09:35:20.976Z,22.86
2023-08-29T09:37:54.402Z,22.91
2023-08-29T09:43:02.068Z,23.02
2023-08-29T09:45:31.258Z,23.06
2023-08-29T09:48:08.694Z,23.12
2023-08-29T09:50:37.822Z,23.16
2023-08-29T09:53:07.298Z,23.18
2023-08-29T09:55:44.899Z,23.21
2023-08-29T09:58:16.369Z,23.24
2023-08-29T10:00:44.922Z,23.27
2023-08-29T10:03:12.984Z,23.30
2023-08-29T10:05:45.450Z,23.32
2023-08-29T10:08:19.416Z,23.35
2023-08-29T10:10:48.590Z,23.37
2023-08-29T10:13:17.195Z,23.39
2023-08-29T10:15:47.291Z,23.41
2023-08-29T10:18:16.412Z,23.43
2023-08-29T10:20:45.891Z,23.44
2023-08-29T10:23:17.317Z,23.45
2023-08-29T10:25:46.496Z,23.47
2023-08-29T10:28:16.079Z,23.51
2023-08-29T10:30:49.019Z,23.55
2023-08-29T10:33:17.425Z,23.60
2023-08-29T10:35:49.145Z,23.67
2023-08-29T10:38:18.221Z,23.74
2023-08-29T10:40:47.515Z,23.82
2023-08-29T10:43:30.796Z,23.89
2023-08-29T10:46:16.876Z,23.95
2023-08-29T10:48:47.762Z,24.01
2023-08-29T10:51:33.374Z,24.05
2023-08-29T10:54:07.857Z,24.11
2023-08-29T10:56:44.280Z,24.18
2023-08-29T10:59:36.461Z,24.22
2023-08-29T11:02:33.158Z,24.24
2023-08-29T11:05:04.556Z,24.27
2023-08-29T11:07:34.072Z,24.27
2023-08-29T11:10:31.461Z,24.30
2023-08-29T11:13:13.557Z,24.30
2023-08-29T11:15:59.835Z,24.32
2023-08-29T11:18:34.333Z,24.36
2023-08-29T11:21:10.425Z,24.41
2023-08-29T11:23:42.434Z,24.46
2023-08-29T11:26:12.088Z,24.50
2023-08-29T11:28:46.534Z,24.55
2023-08-29T11:31:14.968Z,24.58
2023-08-29T11:33:47.995Z,24.61
2023-08-29T11:36:17.217Z,24.63
2023-08-29T11:38:45.495Z,24.68
2023-08-29T11:41:29.601Z,24.72
2023-08-29T11:44:59.205Z,24.77
2023-08-29T11:46:49.978Z,24.79
2023-08-29T11:49:17.998Z,24.82
2023-08-29T11:51:47.222Z,24.82
2023-08-29T11:54:57.266Z,24.84
2023-08-29T11:57:29.084Z,24.87
2023-08-29T11:59:58.367Z,24.88
2023-08-29T12:02:27.573Z,24.91
2023-08-29T12:04:57.503Z,24.92
2023-08-29T12:07:32.822Z,24.94
2023-08-29T12:10:32.001Z,24.95
2023-08-29T12:13:12.768Z,24.97
2023-08-29T12:15:44.359Z,24.97
2023-08-29T12:18:26.354Z,24.95
2023-08-29T12:21:19.143Z,24.96
2023-08-29T12:23:47.328Z,24.95
2023-08-29T12:26:18.584Z,24.94
2023-08-29T12:28:46.688Z,24.93
2023-08-29T12:31:14.683Z,24.93
2023-08-29T12:33:42.854Z,24.92
2023-08-29T12:36:10.806Z,24.88
2023-08-29T12:38:39.034Z,24.82
2023-08-29T12:41:07.257Z,24.77
2023-08-29T12:43:35.372Z,24.72
2023-08-29T12:46:03.611Z,24.68
2023-08-29T12:48:31.623Z,24.63
2023-08-29T12:50:59.574Z,24.59
2023-08-29T12:53:28.589Z,24.57
2023-08-29T12:55:56.689Z,24.54
2023-08-29T12:58:24.761Z,24.53
2023-08-29T13:00:52.849Z,24.52
2023-08-29T13:03:20.882Z,24.52
2023-08-29T13:05:49.245Z,24.53
2023-08-29T13:08:19.116Z,24.53
2023-08-29T13:10:47.370Z,24.51
2023-08-29T13:13:15.596Z,24.50
2023-08-29T13:15:51.071Z,24.50
2023-08-29T13:18:20.117Z,24.52
2023-08-29T13:20:48.380Z,24.54
2023-08-29T13:23:16.627Z,24.57
2023-08-29T13:25:44.906Z,24.60
2023-08-29T13:28:12.972Z,24.63
2023-08-29T13:30:41.055Z,24.66
2023-08-29T13:33:09.486Z,24.68
2023-08-29T13:35:38.274Z,24.66
2023-08-29T13:38:08.312Z,24.64
2023-08-29T13:40:36.897Z,24.60
2023-08-29T13:43:05.050Z,24.58
2023-08-29T13:45:33.064Z,24.52
2023-08-29T13:48:01.355Z,24.49
2023-08-29T13:50:29.403Z,24.49
2023-08-29T13:52:59.550Z,24.52
2023-08-29T13:55:27.840Z,24.57
2023-08-29T13:57:55.911Z,24.62
2023-08-29T14:00:23.921Z,24.68
2023-08-29T14:02:53.629Z,24.72
2023-08-29T14:05:21.788Z,24.74
2023-08-29T14:07:49.792Z,24.75
2023-08-29T14:10:18.582Z,24.75
2023-08-29T14:12:46.874Z,24.72
2023-08-29T14:15:15.713Z,24.68
2023-08-29T14:17:43.808Z,24.65
2023-08-29T14:20:12.197Z,24.62
2023-08-29T14:22:40.368Z,24.59
2023-08-29T14:25:08.743Z,24.55
2023-08-29T14:27:40.761Z,24.53
2023-08-29T14:30:09.069Z,24.50
2023-08-29T14:32:37.041Z,24.47
2023-08-29T14:35:05.530Z,24.44
2023-08-29T14:37:33.683Z,24.40
2023-08-29T14:40:01.793Z,24.35
2023-08-29T14:42:29.736Z,24.32
2023-08-29T14:44:58.340Z,24.30
2023-08-29T14:47:26.635Z,24.28
2023-08-29T14:49:55.206Z,24.27
2023-08-29T14:52:23.305Z,24.27
2023-08-29T14:54:53.839Z,24.28
2023-08-29T14:57:23.030Z,24.28
2023-08-29T14:59:50.881Z,24.29
2023-08-29T15:02:18.935Z,24.32
2023-08-29T15:04:48.606Z,24.34
2023-08-29T15:07:17.188Z,24.39
2023-08-29T15:09:45.552Z,24.45
2023-08-29T15:12:13.668Z,24.53
2023-08-29T15:14:41.635Z,24.59
2023-08-29T15:17:09.605Z,24.65
2023-08-29T15:19:40.149Z,24.70
2023-08-29T15:22:08.874Z,24.75
2023-08-29T15:24:36.836Z,24.79
2023-08-29T15:27:05.536Z,24.83
2023-08-29T15:29:33.492Z,24.86
2023-08-29T15:32:01.505Z,24.88
2023-08-29T15:34:32.067Z,24.91
2023-08-29T15:37:02.068Z,24.94
2023-08-29T15:39:33.991Z,24.96
2023-08-29T15:42:06.155Z,24.98
2023-08-29T15:44:40.258Z,24.99
2023-08-29T15:47:10.599Z,25.01
2023-08-29T15:49:39.306Z,25.01
2023-08-29T15:52:07.247Z,25.00
2023-08-29T15:54:35.221Z,24.99
2023-08-29T15:57:04.247Z,24.98
2023-08-29T15:59:32.336Z,24.97
2023-08-29T16:02:00.567Z,24.95
2023-08-29T16:04:28.598Z,24.92
2023-08-29T16:06:56.473Z,24.87
2023-08-29T16:09:24.561Z,24.81
2023-08-29T16:11:52.593Z,24.76
2023-08-29T16:14:20.468Z,24.69
2023-08-29T16:16:48.395Z,24.63
2023-08-29T16:19:17.033Z,24.59
2023-08-29T16:21:45.028Z,24.53
2023-08-29T16:24:12.980Z,24.47
2023-08-29T16:26:40.960Z,24.42
2023-08-29T16:29:10.505Z,24.36
2023-08-29T16:31:38.488Z,24.31
2023-08-29T16:34:09.008Z,24.25
2023-08-29T16:36:36.990Z,24.19
2023-08-29T16:39:06.214Z,24.14
2023-08-29T16:41:34.401Z,24.08
2023-08-29T16:44:02.610Z,24.04
2023-08-29T16:46:31.364Z,23.97
2023-08-29T16:49:00.013Z,23.91
2023-08-29T16:51:28.056Z,23.86
2023-08-29T16:53:55.949Z,23.79
2023-08-29T16:56:24.148Z,23.75
2023-08-29T16:58:52.038Z,23.70
2023-08-29T17:01:20.206Z,23.64
2023-08-29T17:03:48.499Z,23.59
2023-08-29T17:06:16.569Z,23.53
2023-08-29T17:08:44.572Z,23.46
2023-08-29T17:11:12.754Z,23.40
2023-08-29T17:13:40.721Z,23.33
2023-08-29T17:16:10.803Z,23.26
2023-08-29T17:18:42.031Z,23.19
2023-08-29T17:21:10.148Z,23.15
2023-08-29T17:23:38.454Z,23.10
2023-08-29T17:26:06.791Z,23.06
2023-08-29T17:28:34.939Z,23.03
2023-08-29T17:31:02.972Z,23.00
2023-08-29T17:33:31.034Z,22.98
2023-08-29T17:35:59.006Z,22.96
2023-08-29T17:38:26.940Z,22.94
2023-08-29T17:40:59.131Z,22.92
2023-08-29T17:43:27.617Z,22.87
2023-08-29T17:45:57.658Z,22.81
2023-08-29T17:48:28.471Z,22.76
2023-08-29T17:51:00.154Z,22.73
2023-08-29T17:53:28.627Z,22.66
2023-08-29T17:55:56.922Z,22.61
2023-08-29T17:58:25.976Z,22.54
2023-08-29T18:00:55.614Z,22.47
2023-08-29T18:03:23.800Z,22.40
2023-08-29T18:05:53.841Z,22.34
2023-08-29T18:08:25.605Z,22.28
2023-08-29T18:10:55.041Z,22.22
2023-08-29T18:13:23.193Z,22.16
2023-08-29T18:15:52.136Z,22.10
2023-08-29T18:18:32.500Z,22.04
2023-08-29T18:21:00.506Z,21.98
2023-08-29T18:23:28.954Z,21.94
2023-08-29T18:25:59.633Z,21.88
2023-08-29T18:28:27.739Z,21.83
2023-08-29T18:30:59.142Z,21.79
2023-08-29T18:33:28.763Z,21.76
2023-08-29T18:35:57.640Z,21.72
2023-08-29T18:38:25.924Z,21.68
2023-08-29T18:40:56.675Z,21.65
2023-08-29T18:43:25.753Z,21.61
2023-08-29T18:45:53.845Z,21.57
2023-08-29T18:48:21.980Z,21.52
2023-08-29T18:50:52.327Z,21.49
2023-08-29T18:53:21.270Z,21.46
2023-08-29T18:55:49.507Z,21.40
2023-08-29T18:58:17.526Z,21.35
2023-08-29T19:00:48.926Z,21.28
2023-08-29T19:03:20.133Z,21.24
2023-08-29T19:05:48.358Z,21.18
2023-08-29T19:08:18.691Z,21.13
2023-08-29T19:10:47.848Z,21.08
2023-08-29T19:13:16.016Z,21.05
2023-08-29T19:15:44.266Z,21.02
2023-08-29T19:18:15.086Z,21.00
2023-08-29T19:20:44.019Z,20.97
2023-08-29T19:23:13.357Z,20.93
2023-08-29T19:25:42.338Z,20.89
2023-08-29T19:28:11.508Z,20.84
2023-08-29T19:30:39.921Z,20.81
2023-08-29T19:33:12.410Z,20.77
2023-08-29T19:35:41.618Z,20.72
2023-08-29T19:38:11.821Z,20.67
2023-08-29T19:40:40.370Z,20.65
2023-08-29T19:43:10.724Z,20.62
2023-08-29T19:45:42.101Z,20.58
2023-08-29T19:48:11.886Z,20.56
2023-08-29T19:50:41.200Z,20.53
2023-08-29T19:53:10.127Z,20.51
2023-08-29T19:55:38.399Z,20.49
2023-08-29T19:58:06.950Z,20.47
2023-08-29T20:00:35.909Z,20.46
2023-08-29T20:03:05.578Z,20.43
2023-08-29T20:05:39.677Z,20.42
2023-08-29T20:08:15.238Z,20.40
2023-08-29T20:10:46.866Z,20.37
2023-08-29T20:13:19.000Z,20.36
2023-08-29T20:15:47.570Z,20.34
2023-08-29T20:18:18.829Z,20.32
2023-08-29T20:20:48.035Z,20.30
2023-08-29T20:23:19.801Z,20.28
2023-08-29T20:25:48.836Z,20.26
2023-08-29T20:28:17.838Z,20.26
2023-08-29T20:30:47.230Z,20.25
2023-08-29T20:33:15.750Z,20.24
2023-08-29T20:35:45.099Z,20.22
2023-08-29T20:38:17.521Z,20.20
2023-08-29T20:40:46.341Z,20.19
2023-08-29T20:43:21.430Z,20.18
2023-08-29T20:45:58.185Z,20.18
2023-08-29T20:48:53.959Z,20.16
2023-08-29T20:51:22.768Z,20.16
2023-08-29T20:53:50.880Z,20.16
2023-08-29T20:56:18.941Z,20.15
2023-08-29T20:58:47.266Z,20.15
2023-08-29T21:01:15.724Z,20.14
2023-08-29T21:03:44.253Z,20.13
2023-08-29T21:06:13.298Z,20.12
2023-08-29T21:08:57.052Z,20.10
2023-08-29T21:11:29.975Z,20.06
2023-08-29T21:14:04.993Z,20.04
2023-08-29T21:16:42.200Z,20.02
2023-08-29T21:19:10.649Z,20.01
2023-08-29T21:21:38.891Z,19.99
2023-08-29T21:24:07.245Z,19.96
2023-08-29T21:26:35.340Z,19.95
2023-08-29T21:29:03.329Z,19.94
2023-08-29T21:31:31.325Z,19.93
2023-08-29T21:33:59.411Z,19.93
2023-08-29T21:36:27.560Z,19.92
2023-08-29T21:38:55.721Z,19.93
2023-08-29T21:41:23.851Z,19.93
2023-08-29T21:43:52.861Z,19.94
2023-08-29T21:46:20.887Z,19.95
2023-08-29T21:48:48.917Z,19.95
2023-08-29T21:51:21.999Z,19.94
2023-08-29T21:53:50.251Z,19.93
2023-08-29T21:56:20.149Z,19.93
2023-08-29T21:58:48.111Z,19.92
2023-08-29T22:01:16.134Z,19.89
2023-08-29T22:03:44.188Z,19.87
2023-08-29T22:06:12.301Z,19.86
2023-08-29T22:08:40.720Z,19.85
2023-08-29T22:11:09.360Z,19.83
2023-08-29T22:13:37.586Z,19.81
2023-08-29T22:16:05.907Z,19.78
2023-08-29T22:18:33.939Z,19.75
2023-08-29T22:21:04.133Z,19.71
2023-08-29T22:23:33.765Z,19.68
2023-08-29T22:26:05.863Z,19.66
2023-08-29T22:28:34.150Z,19.64
2023-08-29T22:31:02.187Z,19.66
2023-08-29T22:33:32.389Z,19.67
2023-08-29T22:36:00.797Z,19.69
2023-08-29T22:38:29.389Z,19.70
2023-08-29T22:41:21.231Z,19.70
2023-08-29T22:43:57.044Z,19.71
2023-08-29T22:46:25.028Z,19.70
2023-08-29T22:48:53.004Z,19.71
2023-08-29T22:51:21.459Z,19.70
2023-08-29T22:53:49.485Z,19.68
2023-08-29T22:56:18.259Z,19.66
2023-08-29T22:58:46.768Z,19.63
2023-08-29T23:01:14.925Z,19.62
2023-08-29T23:03:42.906Z,19.60
2023-08-29T23:06:10.992Z,19.58
2023-08-29T23:08:39.033Z,19.57
2023-08-29T23:11:08.057Z,19.55
2023-08-29T23:13:36.011Z,19.54
2023-08-29T23:16:05.392Z,19.53
2023-08-29T23:18:34.933Z,19.54
2023-08-29T23:21:02.897Z,19.53
2023-08-29T23:23:30.787Z,19.52
2023-08-29T23:26:01.968Z,19.52
2023-08-29T23:28:30.575Z,19.51
2023-08-29T23:30:58.562Z,19.51
2023-08-29T23:33:26.604Z,19.50
2023-08-29T23:35:54.637Z,19.50
2023-08-29T23:38:22.661Z,19.50
2023-08-29T23:40:51.547Z,19.50
2023-08-29T23:43:19.651Z,19.50
2023-08-29T23:45:47.630Z,19.49
2023-08-29T23:48:15.679Z,19.47
2023-08-29T23:50:43.601Z,19.46
2023-08-29T23:53:11.551Z,19.45
2023-08-29T23:55:39.696Z,19.43
2023-08-29T23:58:07.888Z,19.42
